sensor_id;sensor_type;location;lat;lon;timestamp;temperature;humidity
51175;DHT22;37240;50.104;20.010;2023-03-29T00:03:53;2.60;76.60
51175;DHT22;37240;50.104;20.010;2023-03-29T00:08:54;2.60;77.10
51175;DHT22;37240;50.104;20.010;2023-03-29T00:13:54;2.50;77.50
51175;DHT22;37240;50.104;20.010;2023-03-29T00:18:55;2.40;77.20
51175;DHT22;37240;50.104;20.010;2023-03-29T00:23:56;2.40;77.40
51175;DHT22;37240;50.104;20.010;2023-03-29T00:28:57;2.40;77.30
51175;DHT22;37240;50.104;20.010;2023-03-29T00:33:57;2.30;78.30
51175;DHT22;37240;50.104;20.010;2023-03-29T00:38:58;2.30;78.50
51175;DHT22;37240;50.104;20.010;2023-03-29T00:44:00;2.20;79.00
51175;DHT22;37240;50.104;20.010;2023-03-29T00:49:08;2.10;79.30
51175;DHT22;37240;50.104;20.010;2023-03-29T00:54:13;2.10;79.40
51175;DHT22;37240;50.104;20.010;2023-03-29T00:59:18;2.00;79.60
51175;DHT22;37240;50.104;20.010;2023-03-29T01:10:36;1.90;81.80
51175;DHT22;37240;50.104;20.010;2023-03-29T01:15:41;1.80;82.00
51175;DHT22;37240;50.104;20.010;2023-03-29T01:31:25;1.70;82.90
51175;DHT22;37240;50.104;20.010;2023-03-29T01:36:37;1.70;83.40
51175;DHT22;37240;50.104;20.010;2023-03-29T01:41:45;1.60;83.90
51175;DHT22;37240;50.104;20.010;2023-03-29T01:46:51;1.60;84.10
51175;DHT22;37240;50.104;20.010;2023-03-29T01:52:02;1.60;84.20
51175;DHT22;37240;50.104;20.010;2023-03-29T01:57:07;1.50;84.80
51175;DHT22;37240;50.104;20.010;2023-03-29T02:02:12;1.30;86.00
51175;DHT22;37240;50.104;20.010;2023-03-29T02:07:16;1.30;86.60
51175;DHT22;37240;50.104;20.010;2023-03-29T02:12:18;1.30;87.00
51175;DHT22;37240;50.104;20.010;2023-03-29T02:17:24;1.20;87.30
51175;DHT22;37240;50.104;20.010;2023-03-29T02:22:33;1.20;88.00
51175;DHT22;37240;50.104;20.010;2023-03-29T02:27:36;1.20;88.70
51175;DHT22;37240;50.104;20.010;2023-03-29T02:33:03;1.10;89.30
51175;DHT22;37240;50.104;20.010;2023-03-29T02:38:08;1.10;89.60
51175;DHT22;37240;50.104;20.010;2023-03-29T02:43:10;1.10;90.00
51175;DHT22;37240;50.104;20.010;2023-03-29T02:48:15;1.10;90.40
51175;DHT22;37240;50.104;20.010;2023-03-29T02:53:18;1.10;90.60
51175;DHT22;37240;50.104;20.010;2023-03-29T02:58:20;0.90;90.90
51175;DHT22;37240;50.104;20.010;2023-03-29T03:03:21;0.80;91.20
51175;DHT22;37240;50.104;20.010;2023-03-29T03:08:21;0.70;91.50
51175;DHT22;37240;50.104;20.010;2023-03-29T03:13:22;0.80;91.50
51175;DHT22;37240;50.104;20.010;2023-03-29T03:18:22;0.70;91.60
51175;DHT22;37240;50.104;20.010;2023-03-29T03:23:23;0.70;91.90
51175;DHT22;37240;50.104;20.010;2023-03-29T03:28:24;0.60;92.30
51175;DHT22;37240;50.104;20.010;2023-03-29T03:33:25;0.60;92.40
51175;DHT22;37240;50.104;20.010;2023-03-29T03:38:25;0.50;92.50
51175;DHT22;37240;50.104;20.010;2023-03-29T03:43:27;0.50;92.70
51175;DHT22;37240;50.104;20.010;2023-03-29T03:48:27;0.40;92.80
51175;DHT22;37240;50.104;20.010;2023-03-29T03:53:28;0.40;93.10
51175;DHT22;37240;50.104;20.010;2023-03-29T03:58:28;0.40;93.20
51175;DHT22;37240;50.104;20.010;2023-03-29T04:03:29;0.40;93.30
51175;DHT22;37240;50.104;20.010;2023-03-29T04:08:30;0.40;93.40
51175;DHT22;37240;50.104;20.010;2023-03-29T04:13:30;0.40;93.50
51175;DHT22;37240;50.104;20.010;2023-03-29T04:18:31;0.40;93.60
51175;DHT22;37240;50.104;20.010;2023-03-29T04:23:32;0.40;93.80
51175;DHT22;37240;50.104;20.010;2023-03-29T04:28:32;0.40;93.60
51175;DHT22;37240;50.104;20.010;2023-03-29T04:33:33;0.40;93.70
51175;DHT22;37240;50.104;20.010;2023-03-29T04:38:33;0.50;93.70
51175;DHT22;37240;50.104;20.010;2023-03-29T04:43:35;0.70;93.80
51175;DHT22;37240;50.104;20.010;2023-03-29T04:48:35;1.00;93.40
51175;DHT22;37240;50.104;20.010;2023-03-29T04:53:36;1.30;92.70
51175;DHT22;37240;50.104;20.010;2023-03-29T04:58:36;1.80;91.60
51175;DHT22;37240;50.104;20.010;2023-03-29T05:03:37;2.40;90.30
51175;DHT22;37240;50.104;20.010;2023-03-29T05:08:39;2.90;88.90
51175;DHT22;37240;50.104;20.010;2023-03-29T05:13:39;3.50;85.30
51175;DHT22;37240;50.104;20.010;2023-03-29T05:18:40;4.00;82.50
51175;DHT22;37240;50.104;20.010;2023-03-29T05:23:41;4.20;80.50
51175;DHT22;37240;50.104;20.010;2023-03-29T05:28:41;4.70;77.70
51175;DHT22;37240;50.104;20.010;2023-03-29T05:33:42;5.10;75.80
51175;DHT22;37240;50.104;20.010;2023-03-29T05:38:43;5.70;72.20
51175;DHT22;37240;50.104;20.010;2023-03-29T05:43:43;6.30;69.90
51175;DHT22;37240;50.104;20.010;2023-03-29T05:48:44;6.70;66.50
51175;DHT22;37240;50.104;20.010;2023-03-29T05:53:44;7.00;64.30
51175;DHT22;37240;50.104;20.010;2023-03-29T05:58:45;7.10;63.40
51175;DHT22;37240;50.104;20.010;2023-03-29T06:03:46;7.40;63.70
51175;DHT22;37240;50.104;20.010;2023-03-29T06:08:46;7.70;61.80
51175;DHT22;37240;50.104;20.010;2023-03-29T06:13:47;8.00;60.30
51175;DHT22;37240;50.104;20.010;2023-03-29T06:18:47;8.30;59.40
51175;DHT22;37240;50.104;20.010;2023-03-29T06:23:48;8.80;58.40
51175;DHT22;37240;50.104;20.010;2023-03-29T06:28:49;8.90;56.60
51175;DHT22;37240;50.104;20.010;2023-03-29T06:33:49;9.30;56.50
51175;DHT22;37240;50.104;20.010;2023-03-29T06:38:50;9.70;54.30
51175;DHT22;37240;50.104;20.010;2023-03-29T06:43:50;9.90;53.10
51175;DHT22;37240;50.104;20.010;2023-03-29T06:48:51;10.20;52.60
51175;DHT22;37240;50.104;20.010;2023-03-29T06:53:51;10.30;50.90
51175;DHT22;37240;50.104;20.010;2023-03-29T06:58:52;10.60;50.20
51175;DHT22;37240;50.104;20.010;2023-03-29T07:03:52;10.90;49.00
51175;DHT22;37240;50.104;20.010;2023-03-29T07:08:53;11.00;48.40
51175;DHT22;37240;50.104;20.010;2023-03-29T07:13:53;11.50;47.90
51175;DHT22;37240;50.104;20.010;2023-03-29T07:18:54;11.70;46.80
51175;DHT22;37240;50.104;20.010;2023-03-29T07:23:55;11.90;46.00
51175;DHT22;37240;50.104;20.010;2023-03-29T07:28:56;12.00;45.90
51175;DHT22;37240;50.104;20.010;2023-03-29T07:33:56;12.30;44.30
51175;DHT22;37240;50.104;20.010;2023-03-29T07:38:57;12.30;42.60
51175;DHT22;37240;50.104;20.010;2023-03-29T07:43:57;12.40;43.40
51175;DHT22;37240;50.104;20.010;2023-03-29T07:48:58;12.80;43.30
51175;DHT22;37240;50.104;20.010;2023-03-29T07:53:59;13.10;41.10
51175;DHT22;37240;50.104;20.010;2023-03-29T07:58:59;13.10;40.10
51175;DHT22;37240;50.104;20.010;2023-03-29T08:04:00;13.10;41.00
51175;DHT22;37240;50.104;20.010;2023-03-29T08:09:00;13.30;39.90
51175;DHT22;37240;50.104;20.010;2023-03-29T08:14:01;13.30;39.10
51175;DHT22;37240;50.104;20.010;2023-03-29T08:19:01;13.40;40.30
51175;DHT22;37240;50.104;20.010;2023-03-29T08:24:02;13.60;39.30
51175;DHT22;37240;50.104;20.010;2023-03-29T08:29:04;13.80;38.80
51175;DHT22;37240;50.104;20.010;2023-03-29T08:34:05;13.80;37.10
51175;DHT22;37240;50.104;20.010;2023-03-29T08:39:05;13.80;37.80
51175;DHT22;37240;50.104;20.010;2023-03-29T08:49:44;13.80;37.60
51175;DHT22;37240;50.104;20.010;2023-03-29T08:54:49;13.70;37.40
51175;DHT22;37240;50.104;20.010;2023-03-29T08:59:54;13.90;36.00
51175;DHT22;37240;50.104;20.010;2023-03-29T09:05:03;14.00;35.30
51175;DHT22;37240;50.104;20.010;2023-03-29T09:10:05;13.90;35.30
51175;DHT22;37240;50.104;20.010;2023-03-29T09:41:34;13.60;34.60
51175;DHT22;37240;50.104;20.010;2023-03-29T09:46:47;13.60;35.70
51175;DHT22;37240;50.104;20.010;2023-03-29T09:51:50;13.50;36.00
51175;DHT22;37240;50.104;20.010;2023-03-29T09:56:50;13.50;36.30
51175;DHT22;37240;50.104;20.010;2023-03-29T10:01:51;13.50;36.20
51175;DHT22;37240;50.104;20.010;2023-03-29T10:06:52;13.30;36.80
51175;DHT22;37240;50.104;20.010;2023-03-29T10:11:57;13.10;36.20
51175;DHT22;37240;50.104;20.010;2023-03-29T10:16:59;13.00;37.00
51175;DHT22;37240;50.104;20.010;2023-03-29T10:22:03;12.80;37.80
51175;DHT22;37240;50.104;20.010;2023-03-29T10:27:06;12.70;36.70
51175;DHT22;37240;50.104;20.010;2023-03-29T10:37:21;12.30;37.70
51175;DHT22;37240;50.104;20.010;2023-03-29T10:42:23;12.10;37.70
51175;DHT22;37240;50.104;20.010;2023-03-29T10:47:25;11.90;37.50
51175;DHT22;37240;50.104;20.010;2023-03-29T10:52:30;11.60;38.00
51175;DHT22;37240;50.104;20.010;2023-03-29T11:09:05;11.30;38.50
51175;DHT22;37240;50.104;20.010;2023-03-29T11:14:54;11.30;38.20
51175;DHT22;37240;50.104;20.010;2023-03-29T11:25:22;11.00;39.50
51175;DHT22;37240;50.104;20.010;2023-03-29T11:30:42;11.10;38.90
51175;DHT22;37240;50.104;20.010;2023-03-29T11:41:15;10.90;38.60
51175;DHT22;37240;50.104;20.010;2023-03-29T11:51:34;10.90;38.80
51175;DHT22;37240;50.104;20.010;2023-03-29T11:56:46;10.80;39.60
51175;DHT22;37240;50.104;20.010;2023-03-29T12:12:22;11.00;39.80
51175;DHT22;37240;50.104;20.010;2023-03-29T12:17:29;11.00;39.60
51175;DHT22;37240;50.104;20.010;2023-03-29T12:22:31;11.10;39.40
51175;DHT22;37240;50.104;20.010;2023-03-29T12:28:00;11.10;39.70
51175;DHT22;37240;50.104;20.010;2023-03-29T12:38:23;11.10;38.90
51175;DHT22;37240;50.104;20.010;2023-03-29T12:43:30;11.10;39.20
51175;DHT22;37240;50.104;20.010;2023-03-29T12:48:31;11.20;39.30
51175;DHT22;37240;50.104;20.010;2023-03-29T12:54:01;11.30;39.00
51175;DHT22;37240;50.104;20.010;2023-03-29T13:04:47;11.40;38.20
51175;DHT22;37240;50.104;20.010;2023-03-29T13:09:52;11.40;38.80
51175;DHT22;37240;50.104;20.010;2023-03-29T13:14:56;11.40;37.70
51175;DHT22;37240;50.104;20.010;2023-03-29T13:20:20;11.40;38.60
51175;DHT22;37240;50.104;20.010;2023-03-29T13:46:41;11.60;37.40
51175;DHT22;37240;50.104;20.010;2023-03-29T13:52:33;11.60;37.60
51175;DHT22;37240;50.104;20.010;2023-03-29T13:57:09;11.60;37.80
51175;DHT22;37240;50.104;20.010;2023-03-29T14:02:28;11.50;37.50
51175;DHT22;37240;50.104;20.010;2023-03-29T14:07:32;11.50;38.20
51175;DHT22;37240;50.104;20.010;2023-03-29T14:12:38;11.40;38.10
51175;DHT22;37240;50.104;20.010;2023-03-29T14:17:38;11.40;38.70
51175;DHT22;37240;50.104;20.010;2023-03-29T14:22:41;11.40;39.20
51175;DHT22;37240;50.104;20.010;2023-03-29T14:27:42;11.50;39.30
51175;DHT22;37240;50.104;20.010;2023-03-29T14:32:43;11.50;39.70
51175;DHT22;37240;50.104;20.010;2023-03-29T14:37:45;11.50;41.10
51175;DHT22;37240;50.104;20.010;2023-03-29T14:42:47;11.50;42.00
51175;DHT22;37240;50.104;20.010;2023-03-29T14:47:49;11.50;40.60
51175;DHT22;37240;50.104;20.010;2023-03-29T14:52:50;11.50;40.80
51175;DHT22;37240;50.104;20.010;2023-03-29T14:57:53;11.50;41.30
51175;DHT22;37240;50.104;20.010;2023-03-29T15:02:59;11.50;41.60
51175;DHT22;37240;50.104;20.010;2023-03-29T15:08:01;11.50;42.30
51175;DHT22;37240;50.104;20.010;2023-03-29T15:13:03;11.40;42.40
51175;DHT22;37240;50.104;20.010;2023-03-29T15:18:05;11.40;42.90
51175;DHT22;37240;50.104;20.010;2023-03-29T15:28:33;11.40;44.50
51175;DHT22;37240;50.104;20.010;2023-03-29T15:33:36;11.50;44.20
51175;DHT22;37240;50.104;20.010;2023-03-29T15:38:38;11.40;44.40
51175;DHT22;37240;50.104;20.010;2023-03-29T15:43:39;11.40;44.90
51175;DHT22;37240;50.104;20.010;2023-03-29T15:48:39;11.40;44.60
51175;DHT22;37240;50.104;20.010;2023-03-29T15:53:40;11.50;44.30
51175;DHT22;37240;50.104;20.010;2023-03-29T15:58:41;11.40;43.70
51175;DHT22;37240;50.104;20.010;2023-03-29T16:03:42;11.40;43.90
51175;DHT22;37240;50.104;20.010;2023-03-29T16:08:42;11.30;44.30
51175;DHT22;37240;50.104;20.010;2023-03-29T16:13:43;11.30;44.30
51175;DHT22;37240;50.104;20.010;2023-03-29T16:18:43;11.30;44.30
51175;DHT22;37240;50.104;20.010;2023-03-29T16:23:45;11.30;44.00
51175;DHT22;37240;50.104;20.010;2023-03-29T16:28:46;11.30;43.90
51175;DHT22;37240;50.104;20.010;2023-03-29T16:33:46;11.30;43.90
51175;DHT22;37240;50.104;20.010;2023-03-29T16:38:47;11.10;43.80
51175;DHT22;37240;50.104;20.010;2023-03-29T16:43:47;11.10;44.00
51175;DHT22;37240;50.104;20.010;2023-03-29T16:48:49;11.00;44.30
51175;DHT22;37240;50.104;20.010;2023-03-29T16:53:49;10.90;44.50
51175;DHT22;37240;50.104;20.010;2023-03-29T16:58:50;10.90;44.30
51175;DHT22;37240;50.104;20.010;2023-03-29T17:03:51;10.90;44.50
51175;DHT22;37240;50.104;20.010;2023-03-29T17:08:51;10.80;44.40
51175;DHT22;37240;50.104;20.010;2023-03-29T17:13:52;10.70;44.60
51175;DHT22;37240;50.104;20.010;2023-03-29T17:18:52;10.50;44.90
51175;DHT22;37240;50.104;20.010;2023-03-29T17:23:53;10.50;45.20
51175;DHT22;37240;50.104;20.010;2023-03-29T17:28:54;10.50;45.70
51175;DHT22;37240;50.104;20.010;2023-03-29T17:33:54;10.40;46.00
51175;DHT22;37240;50.104;20.010;2023-03-29T17:38:55;10.30;46.30
51175;DHT22;37240;50.104;20.010;2023-03-29T17:43:55;10.20;46.50
51175;DHT22;37240;50.104;20.010;2023-03-29T17:48:56;10.20;46.60
51175;DHT22;37240;50.104;20.010;2023-03-29T17:53:57;10.20;47.00
51175;DHT22;37240;50.104;20.010;2023-03-29T17:58:57;10.10;46.90
51175;DHT22;37240;50.104;20.010;2023-03-29T18:03:58;10.00;47.10
51175;DHT22;37240;50.104;20.010;2023-03-29T18:08:59;9.80;47.40
51175;DHT22;37240;50.104;20.010;2023-03-29T18:13:59;9.80;47.40
51175;DHT22;37240;50.104;20.010;2023-03-29T18:19:00;9.70;47.80
51175;DHT22;37240;50.104;20.010;2023-03-29T18:24:00;9.70;48.20
51175;DHT22;37240;50.104;20.010;2023-03-29T18:29:01;9.70;48.80
51175;DHT22;37240;50.104;20.010;2023-03-29T18:34:02;9.70;48.60
51175;DHT22;37240;50.104;20.010;2023-03-29T18:39:03;9.60;49.20
51175;DHT22;37240;50.104;20.010;2023-03-29T18:44:04;9.60;49.60
51175;DHT22;37240;50.104;20.010;2023-03-29T18:49:05;9.50;50.00
51175;DHT22;37240;50.104;20.010;2023-03-29T18:54:05;9.40;50.50
51175;DHT22;37240;50.104;20.010;2023-03-29T18:59:06;9.40;50.80
51175;DHT22;37240;50.104;20.010;2023-03-29T19:04:06;9.40;51.30
51175;DHT22;37240;50.104;20.010;2023-03-29T19:09:07;9.20;52.10
51175;DHT22;37240;50.104;20.010;2023-03-29T19:14:07;9.20;52.60
51175;DHT22;37240;50.104;20.010;2023-03-29T19:19:08;9.20;53.20
51175;DHT22;37240;50.104;20.010;2023-03-29T19:24:08;9.10;54.00
51175;DHT22;37240;50.104;20.010;2023-03-29T19:29:09;9.00;54.60
51175;DHT22;37240;50.104;20.010;2023-03-29T19:34:10;9.00;54.80
51175;DHT22;37240;50.104;20.010;2023-03-29T19:39:10;9.10;55.00
51175;DHT22;37240;50.104;20.010;2023-03-29T19:44:11;9.00;55.50
51175;DHT22;37240;50.104;20.010;2023-03-29T19:49:11;9.00;55.80
51175;DHT22;37240;50.104;20.010;2023-03-29T19:54:12;8.90;56.20
51175;DHT22;37240;50.104;20.010;2023-03-29T19:59:12;8.80;56.50
51175;DHT22;37240;50.104;20.010;2023-03-29T20:04:13;8.70;57.10
51175;DHT22;37240;50.104;20.010;2023-03-29T20:09:14;8.60;57.50
51175;DHT22;37240;50.104;20.010;2023-03-29T20:14:14;8.50;57.90
51175;DHT22;37240;50.104;20.010;2023-03-29T20:19:15;8.50;58.40
51175;DHT22;37240;50.104;20.010;2023-03-29T20:24:16;8.40;58.60
51175;DHT22;37240;50.104;20.010;2023-03-29T20:29:17;8.30;58.60
51175;DHT22;37240;50.104;20.010;2023-03-29T20:34:17;8.30;58.80
51175;DHT22;37240;50.104;20.010;2023-03-29T20:39:18;8.20;59.10
51175;DHT22;37240;50.104;20.010;2023-03-29T20:44:18;8.30;59.40
51175;DHT22;37240;50.104;20.010;2023-03-29T20:49:19;8.20;59.90
51175;DHT22;37240;50.104;20.010;2023-03-29T20:54:20;8.20;60.00
51175;DHT22;37240;50.104;20.010;2023-03-29T20:59:21;8.20;60.00
51175;DHT22;37240;50.104;20.010;2023-03-29T21:04:21;8.10;60.50
51175;DHT22;37240;50.104;20.010;2023-03-29T21:09:22;8.00;61.50
51175;DHT22;37240;50.104;20.010;2023-03-29T21:14:23;8.00;61.90
51175;DHT22;37240;50.104;20.010;2023-03-29T21:19:24;7.90;62.50
51175;DHT22;37240;50.104;20.010;2023-03-29T21:24:24;7.90;62.90
51175;DHT22;37240;50.104;20.010;2023-03-29T21:29:25;7.90;63.10
51175;DHT22;37240;50.104;20.010;2023-03-29T21:34:25;7.80;63.50
51175;DHT22;37240;50.104;20.010;2023-03-29T21:39:26;7.70;63.80
51175;DHT22;37240;50.104;20.010;2023-03-29T21:44:27;7.70;63.90
51175;DHT22;37240;50.104;20.010;2023-03-29T21:49:27;7.70;63.90
51175;DHT22;37240;50.104;20.010;2023-03-29T21:54:28;7.60;64.00
51175;DHT22;37240;50.104;20.010;2023-03-29T21:59:28;7.60;64.40
51175;DHT22;37240;50.104;20.010;2023-03-29T22:04:29;7.50;64.80
51175;DHT22;37240;50.104;20.010;2023-03-29T22:09:31;7.40;65.10
51175;DHT22;37240;50.104;20.010;2023-03-29T22:14:33;7.30;65.40
51175;DHT22;37240;50.104;20.010;2023-03-29T22:19:34;7.30;66.60
51175;DHT22;37240;50.104;20.010;2023-03-29T22:24:35;7.20;67.10
51175;DHT22;37240;50.104;20.010;2023-03-29T22:29:35;7.20;68.20
51175;DHT22;37240;50.104;20.010;2023-03-29T22:34:36;7.00;70.90
51175;DHT22;37240;50.104;20.010;2023-03-29T22:39:36;6.90;71.20
51175;DHT22;37240;50.104;20.010;2023-03-29T22:44:37;6.80;71.80
51175;DHT22;37240;50.104;20.010;2023-03-29T22:49:38;6.80;74.00
51175;DHT22;37240;50.104;20.010;2023-03-29T22:54:38;6.70;75.30
51175;DHT22;37240;50.104;20.010;2023-03-29T22:59:39;6.50;77.30
51175;DHT22;37240;50.104;20.010;2023-03-29T23:04:39;6.40;77.70
51175;DHT22;37240;50.104;20.010;2023-03-29T23:09:40;6.40;77.70
51175;DHT22;37240;50.104;20.010;2023-03-29T23:14:40;6.40;77.60
51175;DHT22;37240;50.104;20.010;2023-03-29T23:19:41;6.60;77.10
51175;DHT22;37240;50.104;20.010;2023-03-29T23:24:41;6.60;77.00
51175;DHT22;37240;50.104;20.010;2023-03-29T23:29:42;6.70;76.90
51175;DHT22;37240;50.104;20.010;2023-03-29T23:34:42;6.70;76.60
51175;DHT22;37240;50.104;20.010;2023-03-29T23:39:43;6.70;80.10
51175;DHT22;37240;50.104;20.010;2023-03-29T23:44:43;6.60;81.40
51175;DHT22;37240;50.104;20.010;2023-03-29T23:49:44;6.50;82.00
51175;DHT22;37240;50.104;20.010;2023-03-29T23:54:44;6.50;83.50
51175;DHT22;37240;50.104;20.010;2023-03-29T23:59:45;6.60;83.30
